createdAt,value
2018-04-12T00:01:05.644Z,69.89
2018-04-12T00:03:34.028Z,71.05
2018-04-12T00:06:02.409Z,71.30
2018-04-12T00:08:30.816Z,71.81
2018-04-12T00:10:59.144Z,72.35
2018-04-12T00:13:27.481Z,71.94
2018-04-12T00:15:55.811Z,72.47
2018-04-12T00:18:24.172Z,72.95
2018-04-12T00:20:52.482Z,73.35
2018-04-12T00:23:20.838Z,73.63
2018-04-12T00:25:49.256Z,73.86
2018-04-12T00:28:17.594Z,73.86
2018-04-12T00:30:45.916Z,74.31
2018-04-12T00:33:14.229Z,74.20
2018-04-12T00:35:42.625Z,74.36
2018-04-12T00:38:11.009Z,74.11
2018-04-12T00:40:39.347Z,73.83
2018-04-12T00:43:07.669Z,73.27
2018-04-12T00:45:36.089Z,73.40
2018-04-12T00:48:04.470Z,73.01
2018-04-12T00:50:32.811Z,73.35
2018-04-12T00:53:01.155Z,73.16
2018-04-12T00:55:29.485Z,72.70
2018-04-12T00:57:57.873Z,72.27
2018-04-12T01:00:26.192Z,72.19
2018-04-12T01:02:54.529Z,72.34
2018-04-12T01:05:22.872Z,72.41
2018-04-12T01:07:51.172Z,72.72
2018-04-12T01:10:19.543Z,72.65
2018-04-12T01:12:47.864Z,72.05
2018-04-12T01:15:16.253Z,71.45
2018-04-12T01:17:44.590Z,71.88
2018-04-12T01:20:12.950Z,72.31
2018-04-12T01:22:41.307Z,73.00
2018-04-12T01:25:09.632Z,73.44
2018-04-12T01:27:38.017Z,73.31
2018-04-12T01:30:06.345Z,73.72
2018-04-12T01:32:34.726Z,73.82
2018-04-12T01:35:03.093Z,73.93
2018-04-12T01:37:31.436Z,73.92
2018-04-12T01:39:59.784Z,74.25
2018-04-12T01:42:28.162Z,74.68
2018-04-12T01:44:56.500Z,74.58
2018-04-12T01:47:24.843Z,74.96
2018-04-12T01:49:53.196Z,75.12
2018-04-12T01:52:21.538Z,75.58
2018-04-12T01:54:49.909Z,75.62
2018-04-12T01:57:18.320Z,75.74
2018-04-12T01:59:46.660Z,75.97
2018-04-12T02:02:15.003Z,75.61
2018-04-12T02:04:43.368Z,75.26
2018-04-12T02:07:11.700Z,75.41
2018-04-12T02:09:40.052Z,74.89
2018-04-12T02:12:08.466Z,75.04
2018-04-12T02:14:36.794Z,75.05
2018-04-12T02:17:05.116Z,75.04
2018-04-12T02:19:33.469Z,75.31
2018-04-12T02:22:01.817Z,74.71
2018-04-12T02:24:30.173Z,73.92
2018-04-12T02:26:58.486Z,73.78
2018-04-12T02:29:26.896Z,73.43
2018-04-12T02:31:55.245Z,73.12
2018-04-12T02:34:23.673Z,73.49
2018-04-12T02:36:51.998Z,73.18
2018-04-12T02:39:20.343Z,73.42
2018-04-12T02:41:48.653Z,73.28
2018-04-12T02:44:17.066Z,73.21
2018-04-12T02:46:45.400Z,73.00
2018-04-12T02:49:13.730Z,73.29
2018-04-12T02:51:42.085Z,73.29
2018-04-12T02:54:10.434Z,73.72
2018-04-12T02:56:38.760Z,73.58
2018-04-12T02:59:07.163Z,72.93
2018-04-12T03:01:35.483Z,72.68
2018-04-12T03:04:03.804Z,72.60
2018-04-12T03:06:32.283Z,72.80
2018-04-12T03:09:00.583Z,72.69
2018-04-12T03:11:28.929Z,73.72
2018-04-12T03:13:57.303Z,73.24
2018-04-12T03:16:25.708Z,73.24
2018-04-12T03:18:54.045Z,73.05
2018-04-12T03:21:22.396Z,73.35
2018-04-12T03:23:51.232Z,73.52
2018-04-12T03:26:19.556Z,72.96
2018-04-12T03:28:47.884Z,73.68
2018-04-12T03:31:16.217Z,72.17
2018-04-12T03:33:44.669Z,71.13
2018-04-12T03:36:13.002Z,70.46
2018-04-12T03:38:41.299Z,69.84
2018-04-12T03:41:09.631Z,69.07
2018-04-12T03:43:38.024Z,68.96
2018-04-12T03:46:06.399Z,68.54
2018-04-12T03:48:34.783Z,68.26
2018-04-12T03:51:03.101Z,68.01
2018-04-12T03:53:31.444Z,67.65
2018-04-12T03:55:59.879Z,68.13
2018-04-12T03:58:28.286Z,68.46
2018-04-12T04:00:56.655Z,68.64
2018-04-12T04:03:24.990Z,67.89
2018-04-12T04:05:53.344Z,68.40
2018-04-12T04:08:21.729Z,68.46
2018-04-12T04:10:50.146Z,68.29
2018-04-12T04:13:18.488Z,67.73
2018-04-12T04:15:58.435Z,67.44
2018-04-12T04:18:38.392Z,67.08
2018-04-12T04:21:08.351Z,67.18
2018-04-12T04:23:36.688Z,67.41
2018-04-12T04:26:04.993Z,66.98
2018-04-12T04:28:33.367Z,68.11
2018-04-12T04:31:01.677Z,67.18
2018-04-12T04:33:30.206Z,66.86
2018-04-12T04:35:58.640Z,67.07
2018-04-12T04:38:27.287Z,66.68
2018-04-12T04:40:55.611Z,66.49
2018-04-12T04:43:23.949Z,70.41
2018-04-12T04:45:52.365Z,67.76
2018-04-12T04:48:20.730Z,66.21
2018-04-12T04:50:49.060Z,67.50
2018-04-12T04:53:17.405Z,65.61
2018-04-12T04:55:45.921Z,67.42
2018-04-12T04:58:14.346Z,65.37
2018-04-12T05:00:43.333Z,66.18
2018-04-12T05:03:11.641Z,65.00
2018-04-12T05:05:39.985Z,64.88
2018-04-12T05:08:08.297Z,64.91
2018-04-12T05:10:36.631Z,65.15
2018-04-12T05:13:05.017Z,64.75
2018-04-12T05:15:33.437Z,64.40
2018-04-12T05:18:01.787Z,64.50
2018-04-12T05:20:30.111Z,65.22
2018-04-12T05:22:58.432Z,64.61
2018-04-12T05:25:26.935Z,65.03
2018-04-12T05:27:55.324Z,64.65
2018-04-12T05:30:23.639Z,64.60
2018-04-12T05:32:51.973Z,63.54
2018-04-12T05:35:20.341Z,63.25
2018-04-12T05:37:48.657Z,63.09
2018-04-12T05:40:17.252Z,63.23
2018-04-12T05:42:45.590Z,62.87
2018-04-12T05:45:13.909Z,62.76
2018-04-12T05:47:42.352Z,62.29
2018-04-12T05:50:10.680Z,61.85
2018-04-12T05:52:39.036Z,62.68
2018-04-12T05:55:07.395Z,62.39
2018-04-12T05:57:35.702Z,61.76
2018-04-12T06:00:04.056Z,60.76
2018-04-12T06:02:32.406Z,60.46
2018-04-12T06:05:00.752Z,60.05
2018-04-12T06:07:29.074Z,60.27
2018-04-12T06:09:58.205Z,60.00
2018-04-12T06:12:26.576Z,60.11
2018-04-12T06:14:54.925Z,59.93
2018-04-12T06:17:23.255Z,59.83
2018-04-12T06:19:51.584Z,59.86
2018-04-12T06:22:19.905Z,59.41
2018-04-12T06:24:48.246Z,59.54
2018-04-12T06:29:50.249Z,58.63
2018-04-12T06:32:18.550Z,58.49
2018-04-12T06:34:47.406Z,58.51
2018-04-12T06:37:15.797Z,58.28
2018-04-12T06:39:44.187Z,58.01
2018-04-12T06:42:12.529Z,57.79
2018-04-12T06:44:40.871Z,57.51
2018-04-12T06:47:09.282Z,57.88
2018-04-12T06:49:37.628Z,57.44
2018-04-12T06:52:06.420Z,57.15
2018-04-12T06:54:34.760Z,56.70
2018-04-12T06:57:03.097Z,56.86
2018-04-12T06:59:38.324Z,56.99
2018-04-12T07:02:06.665Z,56.86
2018-04-12T07:04:35.025Z,56.61
2018-04-12T07:07:03.356Z,56.47
2018-04-12T07:09:31.746Z,56.47
2018-04-12T07:12:00.099Z,56.17
2018-04-12T07:14:28.416Z,56.05
2018-04-12T07:16:56.762Z,55.59
2018-04-12T07:19:25.113Z,54.58
2018-04-12T07:21:53.444Z,53.09
2018-04-12T07:24:21.813Z,52.76
2018-04-12T07:26:50.300Z,52.35
2018-04-12T07:29:18.622Z,51.79
2018-04-12T07:31:46.937Z,52.19
2018-04-12T07:34:15.278Z,52.75
2018-04-12T07:36:43.628Z,52.62
2018-04-12T07:39:12.025Z,52.84
2018-04-12T07:41:40.361Z,53.33
2018-04-12T07:44:08.821Z,53.56
2018-04-12T07:46:37.204Z,52.91
2018-04-12T07:49:05.540Z,53.39
2018-04-12T07:51:33.886Z,53.39
2018-04-12T07:54:02.223Z,53.57
2018-04-12T07:56:30.587Z,53.45
2018-04-12T07:58:58.910Z,53.78
2018-04-12T08:01:27.228Z,53.72
2018-04-12T08:03:55.558Z,53.55
2018-04-12T08:06:23.975Z,53.86
2018-04-12T08:08:52.330Z,53.69
2018-04-12T08:11:20.714Z,53.33
2018-04-12T08:13:49.122Z,53.67
2018-04-12T08:16:17.468Z,53.64
2018-04-12T08:18:45.897Z,53.44
2018-04-12T08:21:14.234Z,52.98
2018-04-12T08:23:42.572Z,52.78
2018-04-12T08:26:10.922Z,52.73
2018-04-12T08:28:39.587Z,52.54
2018-04-12T08:31:08.681Z,52.70
2018-04-12T08:33:37.104Z,52.65
2018-04-12T08:36:05.434Z,52.75
2018-04-12T08:38:33.747Z,52.34
2018-04-12T08:41:02.066Z,52.23
2018-04-12T08:43:30.454Z,51.81
2018-04-12T08:45:58.847Z,52.44
2018-04-12T08:48:27.148Z,51.23
2018-04-12T08:50:55.491Z,51.59
2018-04-12T08:53:23.836Z,50.50
2018-04-12T08:55:52.218Z,49.93
2018-04-12T08:58:20.583Z,49.27
2018-04-12T09:00:48.965Z,48.73
2018-04-12T09:03:17.296Z,48.38
2018-04-12T09:05:45.648Z,48.81
2018-04-12T09:08:14.061Z,49.25
2018-04-12T09:10:42.382Z,48.39
2018-04-12T09:13:10.726Z,48.45
2018-04-12T09:15:39.051Z,48.93
2018-04-12T09:18:07.372Z,48.33
2018-04-12T09:20:35.708Z,48.07
2018-04-12T09:23:04.031Z,46.78
2018-04-12T09:25:32.448Z,46.23
2018-04-12T09:28:00.879Z,43.44
2018-04-12T09:30:29.195Z,43.91
2018-04-12T09:32:57.517Z,42.55
2018-04-12T09:35:25.832Z,43.48
2018-04-12T09:37:54.169Z,43.77
2018-04-12T09:40:22.515Z,43.20
2018-04-12T09:42:50.858Z,43.10
2018-04-12T09:45:19.184Z,44.65
2018-04-12T09:47:47.537Z,44.60
2018-04-12T09:50:15.936Z,44.70
2018-04-12T09:52:44.270Z,44.62
2018-04-12T09:55:12.610Z,43.49
2018-04-12T09:57:41.032Z,42.88
2018-04-12T10:00:09.400Z,42.75
2018-04-12T10:02:43.349Z,43.67
2018-04-12T10:08:18.146Z,43.15
2018-04-12T10:10:46.484Z,42.80
2018-04-12T10:13:14.810Z,41.80
2018-04-12T10:15:43.149Z,40.90
2018-04-12T10:18:11.472Z,41.48
2018-04-12T10:20:39.821Z,40.66
2018-04-12T10:23:08.129Z,40.27
2018-04-12T10:25:36.493Z,40.69
2018-04-12T10:28:04.786Z,40.67
2018-04-12T10:30:33.230Z,39.83
2018-04-12T10:33:01.558Z,39.56
2018-04-12T10:35:29.903Z,37.90
2018-04-12T10:37:58.298Z,38.87
2018-04-12T10:40:26.640Z,38.71
2018-04-12T10:42:54.990Z,38.92
2018-04-12T10:45:23.307Z,38.10
2018-04-12T10:47:51.648Z,37.93
2018-04-12T10:50:19.999Z,37.87
2018-04-12T10:52:48.333Z,38.30
2018-04-12T10:55:16.709Z,38.68
2018-04-12T10:57:45.033Z,38.16
2018-04-12T11:00:13.365Z,38.43
2018-04-12T11:02:41.701Z,38.39
2018-04-12T11:05:10.093Z,39.08
2018-04-12T11:07:38.429Z,38.69
2018-04-12T11:10:06.745Z,38.26
2018-04-12T11:12:35.112Z,38.10
2018-04-12T11:15:03.492Z,37.64
2018-04-12T11:17:31.799Z,36.85
2018-04-12T11:20:00.148Z,36.93
2018-04-12T11:22:28.525Z,36.82
2018-04-12T11:24:56.916Z,37.20
2018-04-12T11:27:25.235Z,36.11
2018-04-12T11:29:53.564Z,36.21
2018-04-12T11:32:22.002Z,36.41
2018-04-12T11:34:50.362Z,35.55
2018-04-12T11:37:18.682Z,35.25
2018-04-12T11:39:47.026Z,36.32
2018-04-12T11:42:15.474Z,35.39
2018-04-12T11:44:43.844Z,36.41
2018-04-12T11:47:12.170Z,36.89
2018-04-12T11:49:40.504Z,36.67
2018-04-12T11:52:08.817Z,36.06
2018-04-12T11:54:37.135Z,36.50
2018-04-12T11:57:05.448Z,36.94
2018-04-12T11:59:33.782Z,36.63
2018-04-12T12:02:02.091Z,36.97
2018-04-12T12:04:30.425Z,37.00
2018-04-12T12:06:58.775Z,35.92
2018-04-12T12:09:27.077Z,35.68
2018-04-12T12:11:55.414Z,35.77
2018-04-12T12:14:23.996Z,35.12
2018-04-12T12:16:52.381Z,35.45
2018-04-12T12:19:20.711Z,34.67
2018-04-12T12:21:49.049Z,35.64
2018-04-12T12:24:17.354Z,35.44
2018-04-12T12:26:45.696Z,35.50
2018-04-12T12:29:14.015Z,36.20
2018-04-12T12:31:42.349Z,36.91
2018-04-12T12:34:10.667Z,36.74
2018-04-12T12:36:38.988Z,36.81
2018-04-12T12:39:07.325Z,36.64
2018-04-12T12:41:35.658Z,37.09
2018-04-12T12:44:03.985Z,36.86
2018-04-12T12:46:32.297Z,36.61
2018-04-12T12:49:00.636Z,36.76
2018-04-12T12:51:28.955Z,37.26
2018-04-12T12:53:57.296Z,36.62
2018-04-12T12:56:25.615Z,35.88
2018-04-12T12:58:53.984Z,35.42
2018-04-12T13:01:22.340Z,36.07
2018-04-12T13:03:50.733Z,35.91
2018-04-12T13:06:19.049Z,35.89
2018-04-12T13:08:47.379Z,36.32
2018-04-12T13:11:15.685Z,35.87
2018-04-12T13:13:44.048Z,35.50
2018-04-12T13:16:12.364Z,35.74
2018-04-12T13:18:40.708Z,36.04
2018-04-12T13:21:09.036Z,35.88
2018-04-12T13:23:37.349Z,35.99
2018-04-12T13:26:05.680Z,36.53
2018-04-12T13:28:34.046Z,35.78
2018-04-12T13:31:02.371Z,35.91
2018-04-12T13:33:30.707Z,35.34
2018-04-12T13:35:59.030Z,35.75
2018-04-12T13:38:27.393Z,35.76
2018-04-12T13:40:55.784Z,36.40
2018-04-12T13:43:24.174Z,36.88
2018-04-12T13:45:52.486Z,36.35
2018-04-12T13:48:20.817Z,35.92
2018-04-12T13:50:49.145Z,34.98
2018-04-12T13:53:17.473Z,34.12
2018-04-12T13:55:45.807Z,33.60
2018-04-12T13:58:14.128Z,33.59
2018-04-12T14:00:42.441Z,34.05
2018-04-12T14:03:10.768Z,34.21
2018-04-12T14:05:39.099Z,34.52
2018-04-12T14:08:07.430Z,34.60
2018-04-12T14:10:35.739Z,34.57
2018-04-12T14:13:04.115Z,34.42
2018-04-12T14:15:32.477Z,34.06
2018-04-12T14:18:00.813Z,33.99
2018-04-12T14:20:29.133Z,33.60
2018-04-12T14:22:57.447Z,33.05
2018-04-12T14:25:25.756Z,33.48
2018-04-12T14:27:54.084Z,33.08
2018-04-12T14:30:22.433Z,32.92
2018-04-12T14:32:50.824Z,32.66
2018-04-12T14:35:19.131Z,32.08
2018-04-12T14:37:47.579Z,32.76
2018-04-12T14:40:15.912Z,33.59
2018-04-12T14:42:44.232Z,33.82
2018-04-12T14:45:12.579Z,34.19
2018-04-12T14:47:41.048Z,34.70
2018-04-12T14:50:09.369Z,34.92
2018-04-12T14:52:37.693Z,34.98
2018-04-12T14:55:06.035Z,34.94
2018-04-12T14:57:34.341Z,35.21
2018-04-12T15:00:02.684Z,34.14
2018-04-12T15:02:30.989Z,33.41
2018-04-12T15:04:59.375Z,33.03
2018-04-12T15:07:27.685Z,32.33
2018-04-12T15:09:56.034Z,32.17
2018-04-12T15:12:24.355Z,31.94
2018-04-12T15:14:52.690Z,32.15
2018-04-12T15:17:21.050Z,32.61
2018-04-12T15:19:49.402Z,33.49
2018-04-12T15:22:17.813Z,34.26
2018-04-12T15:24:46.153Z,34.41
2018-04-12T15:27:14.508Z,34.63
2018-04-12T15:29:42.816Z,34.53
2018-04-12T15:32:11.201Z,34.31
2018-04-12T15:34:39.511Z,34.40
2018-04-12T15:37:08.105Z,34.46
2018-04-12T15:39:36.451Z,34.01
2018-04-12T15:42:04.850Z,34.62
2018-04-12T15:44:33.184Z,34.41
2018-04-12T15:47:01.631Z,34.66
2018-04-12T15:49:29.967Z,34.98
2018-04-12T15:51:58.306Z,35.11
2018-04-12T15:54:26.625Z,35.39
2018-04-12T15:56:54.953Z,35.59
2018-04-12T15:59:23.271Z,35.87
2018-04-12T16:01:51.599Z,36.23
2018-04-12T16:04:19.925Z,36.32
2018-04-12T16:06:48.269Z,36.59
2018-04-12T16:09:16.643Z,36.81
2018-04-12T16:11:44.973Z,36.98
2018-04-12T16:14:13.315Z,36.89
2018-04-12T16:16:41.617Z,36.87
2018-04-12T16:19:09.929Z,36.95
2018-04-12T16:21:38.284Z,36.94
2018-04-12T16:24:06.683Z,37.01
2018-04-12T16:26:35.088Z,37.20
2018-04-12T16:29:03.406Z,37.11
2018-04-12T16:31:31.888Z,37.58
2018-04-12T16:34:00.205Z,37.54
2018-04-12T16:36:28.549Z,37.67
2018-04-12T16:38:56.867Z,38.06
2018-04-12T16:41:25.214Z,37.92
2018-04-12T16:43:53.554Z,38.36
2018-04-12T16:46:22.822Z,38.28
2018-04-12T16:48:51.160Z,38.35
2018-04-12T16:51:19.488Z,38.63
2018-04-12T16:53:47.832Z,38.66
2018-04-12T16:56:16.155Z,38.66
2018-04-12T16:58:44.569Z,38.91
2018-04-12T17:01:13.113Z,39.04
2018-04-12T17:03:41.502Z,38.88
2018-04-12T17:06:19.240Z,39.12
2018-04-12T17:08:47.612Z,39.02
2018-04-12T17:11:16.730Z,39.33
2018-04-12T17:13:45.130Z,39.28
2018-04-12T17:16:14.382Z,39.28
2018-04-12T17:18:42.720Z,39.27
2018-04-12T17:21:11.068Z,39.22
2018-04-12T17:23:39.405Z,39.12
2018-04-12T17:26:07.739Z,39.02
2018-04-12T17:28:36.092Z,39.33
2018-04-12T17:31:04.583Z,39.14
2018-04-12T17:33:33.477Z,38.98
2018-04-12T17:36:01.837Z,38.85
2018-04-12T17:55:38.443Z,38.72
2018-04-12T17:58:06.988Z,38.53
2018-04-12T18:17:43.269Z,38.94
2018-04-12T18:20:12.609Z,38.93
2018-04-12T18:39:48.619Z,39.77
2018-04-12T18:59:24.451Z,40.84
2018-04-12T19:01:52.804Z,40.83
2018-04-12T19:04:21.151Z,40.88
2018-04-12T19:06:49.485Z,40.83
2018-04-12T19:09:17.826Z,41.11
2018-04-12T19:11:46.179Z,41.14
2018-04-12T19:14:14.526Z,41.12
2018-04-12T19:16:42.860Z,41.19
2018-04-12T19:19:11.245Z,41.22
2018-04-12T19:21:39.587Z,41.32
2018-04-12T19:24:07.938Z,41.53
2018-04-12T19:26:36.427Z,41.51
2018-04-12T19:29:04.832Z,41.81
2018-04-12T19:31:33.461Z,41.74
2018-04-12T19:34:01.788Z,41.60
2018-04-12T19:36:30.101Z,41.80
2018-04-12T19:38:58.504Z,41.82
2018-04-12T19:41:26.886Z,42.05
2018-04-12T19:43:55.213Z,42.22
2018-04-12T19:46:23.537Z,42.31
2018-04-12T19:48:51.859Z,42.32
2018-04-12T19:51:20.175Z,42.26
2018-04-12T19:53:48.510Z,42.46
2018-04-12T19:56:17.008Z,42.56
2018-04-12T19:58:45.450Z,42.44
2018-04-12T20:01:13.785Z,42.46
2018-04-12T20:03:42.242Z,42.66
2018-04-12T20:06:10.596Z,42.78
2018-04-12T20:08:38.983Z,42.60
2018-04-12T20:11:07.319Z,42.61
2018-04-12T20:13:35.646Z,42.58
2018-04-12T20:16:04.046Z,42.69
2018-04-12T20:18:32.457Z,42.76
2018-04-12T20:21:00.781Z,42.79
2018-04-12T20:23:29.168Z,42.59
2018-04-12T20:25:57.506Z,42.60
2018-04-12T20:28:25.902Z,42.93
2018-04-12T20:30:54.240Z,42.67
2018-04-12T20:33:22.581Z,42.91
2018-04-12T20:35:51.051Z,42.76
2018-04-12T20:38:19.468Z,43.03
2018-04-12T20:40:47.898Z,42.99
2018-04-12T20:43:16.235Z,43.08
2018-04-12T20:45:44.600Z,43.13
2018-04-12T20:48:12.947Z,43.20
2018-04-12T20:50:41.322Z,43.22
2018-04-12T20:53:09.653Z,43.34
2018-04-12T20:55:38.018Z,43.51
2018-04-12T20:58:06.387Z,43.50
2018-04-12T21:00:34.781Z,43.48
2018-04-12T21:03:18.579Z,43.38
2018-04-12T21:05:51.162Z,43.75
2018-04-12T21:08:19.620Z,43.64
2018-04-12T21:10:48.341Z,43.89
2018-04-12T21:13:16.698Z,44.14
2018-04-12T21:15:45.026Z,44.25
2018-04-12T21:18:13.404Z,44.27
2018-04-12T21:20:41.738Z,44.43
2018-04-12T21:23:10.184Z,44.39
2018-04-12T21:25:38.526Z,44.45
2018-04-12T21:28:06.993Z,44.55
2018-04-12T21:30:35.321Z,44.48
2018-04-12T21:33:03.777Z,44.46
2018-04-12T21:35:32.142Z,44.40
2018-04-12T21:38:00.468Z,44.50
2018-04-12T21:40:28.793Z,44.40
2018-04-12T21:42:57.151Z,44.57
2018-04-12T21:45:25.505Z,44.58
2018-04-12T21:47:53.892Z,44.77
2018-04-12T21:50:23.006Z,44.75
2018-04-12T21:52:51.337Z,44.74
2018-04-12T21:55:19.684Z,44.80
2018-04-12T21:57:48.049Z,45.03
2018-04-12T22:00:16.472Z,44.94
2018-04-12T22:02:44.991Z,44.72
2018-04-12T22:05:13.295Z,44.92
2018-04-12T22:07:41.637Z,44.78
2018-04-12T22:10:09.976Z,44.91
2018-04-12T22:12:38.407Z,44.99
2018-04-12T22:15:06.821Z,45.03
2018-04-12T22:17:35.148Z,45.06
2018-04-12T22:20:03.484Z,44.88
2018-04-12T22:22:31.800Z,44.82
2018-04-12T22:25:00.128Z,44.75
2018-04-12T22:27:28.495Z,44.59
2018-04-12T22:29:56.845Z,44.38
2018-04-12T22:32:25.186Z,44.21
2018-04-12T22:34:53.538Z,44.38
2018-04-12T22:37:21.875Z,44.23
2018-04-12T22:39:50.253Z,44.18
2018-04-12T22:42:18.637Z,44.43
2018-04-12T22:44:46.943Z,44.31
2018-04-12T22:47:15.282Z,44.39
2018-04-12T22:49:43.613Z,44.23
2018-04-12T22:52:11.970Z,44.20
2018-04-12T22:54:40.290Z,44.33
2018-04-12T22:57:08.638Z,44.57
2018-04-12T22:59:37.042Z,44.69
2018-04-12T23:02:05.427Z,44.36
2018-04-12T23:04:33.737Z,44.54
2018-04-12T23:07:02.088Z,44.75
2018-04-12T23:09:44.879Z,44.69
2018-04-12T23:12:13.232Z,45.06
2018-04-12T23:14:41.556Z,45.12
2018-04-12T23:17:09.935Z,44.98
2018-04-12T23:19:38.279Z,45.02
2018-04-12T23:22:06.632Z,45.11
2018-04-12T23:24:34.951Z,45.17
2018-04-12T23:27:03.277Z,45.28
2018-04-12T23:29:31.612Z,45.38
2018-04-12T23:31:59.931Z,45.53
2018-04-12T23:34:28.274Z,45.42
2018-04-12T23:36:56.624Z,45.58
2018-04-12T23:39:24.985Z,45.72
2018-04-12T23:41:53.299Z,46.07
2018-04-12T23:44:21.631Z,46.10
2018-04-12T23:46:49.973Z,46.05
2018-04-12T23:49:18.284Z,46.27
2018-04-12T23:51:46.601Z,46.32
2018-04-12T23:54:14.944Z,46.34
2018-04-12T23:56:43.355Z,46.69
2018-04-12T23:59:11.752Z,46.37
